createdAt,value
2018-09-02T00:00:33.315Z,12.30
2018-09-02T00:03:02.508Z,12.30
2018-09-02T00:05:30.725Z,12.30
2018-09-02T00:07:59.496Z,12.30
2018-09-02T00:10:27.798Z,12.30
2018-09-02T00:12:56.023Z,12.30
2018-09-02T00:15:24.271Z,12.20
2018-09-02T00:17:52.464Z,12.30
2018-09-02T00:20:20.864Z,12.30
2018-09-02T00:22:49.044Z,12.30
2018-09-02T00:25:17.256Z,12.30
2018-09-02T00:27:45.474Z,12.30
2018-09-02T00:30:13.695Z,12.30
2018-09-02T00:32:41.922Z,12.30
2018-09-02T00:35:10.154Z,12.30
2018-09-02T00:37:38.358Z,12.30
2018-09-02T00:40:06.566Z,12.30
2018-09-02T00:42:34.783Z,12.30
2018-09-02T00:45:02.994Z,12.30
2018-09-02T00:47:31.211Z,12.30
2018-09-02T00:49:59.461Z,12.30
2018-09-02T00:52:27.641Z,12.30
2018-09-02T00:54:55.878Z,12.30
2018-09-02T00:57:24.099Z,12.30
2018-09-02T00:59:52.306Z,12.30
2018-09-02T01:02:20.519Z,12.40
2018-09-02T01:04:48.734Z,12.40
2018-09-02T01:07:16.944Z,12.30
2018-09-02T01:09:45.186Z,12.30
2018-09-02T01:12:13.419Z,12.40
2018-09-02T01:14:41.635Z,12.30
2018-09-02T01:17:09.850Z,12.30
2018-09-02T01:19:38.057Z,12.40
2018-09-02T01:22:06.315Z,12.50
2018-09-02T01:24:34.525Z,12.50
2018-09-02T01:27:02.736Z,12.50
2018-09-02T01:29:30.960Z,12.40
2018-09-02T01:31:59.174Z,12.40
2018-09-02T01:34:27.391Z,12.40
2018-09-02T01:36:55.644Z,12.40
2018-09-02T01:39:23.842Z,12.40
2018-09-02T01:41:52.073Z,12.40
2018-09-02T01:44:20.279Z,12.50
2018-09-02T01:46:48.537Z,12.40
2018-09-02T01:49:16.738Z,12.40
2018-09-02T01:51:44.975Z,12.50
2018-09-02T01:54:13.179Z,12.40
2018-09-02T01:56:41.432Z,12.40
2018-09-02T01:59:09.639Z,12.40
2018-09-02T02:01:37.872Z,12.40
2018-09-02T02:04:06.319Z,12.40
2018-09-02T02:06:34.530Z,12.40
2018-09-02T02:09:02.931Z,12.40
2018-09-02T02:11:31.134Z,12.40
2018-09-02T02:13:59.345Z,12.40
2018-09-02T02:16:27.600Z,12.40
2018-09-02T02:18:55.843Z,12.40
2018-09-02T02:21:24.103Z,12.40
2018-09-02T02:23:52.319Z,12.40
2018-09-02T02:26:20.538Z,12.30
2018-09-02T02:28:48.784Z,12.40
2018-09-02T02:31:16.998Z,12.40
2018-09-02T02:33:45.211Z,12.40
2018-09-02T02:36:13.443Z,12.30
2018-09-02T02:38:41.691Z,12.40
2018-09-02T02:41:09.888Z,12.40
2018-09-02T02:43:38.112Z,12.50
2018-09-02T02:46:06.331Z,12.40
2018-09-02T02:48:34.548Z,12.40
2018-09-02T02:51:02.752Z,12.30
2018-09-02T02:53:30.966Z,12.30
2018-09-02T02:55:59.181Z,12.40
2018-09-02T02:58:27.396Z,12.30
2018-09-02T03:00:55.612Z,12.40
2018-09-02T03:03:23.843Z,12.40
2018-09-02T03:05:52.058Z,12.40
2018-09-02T03:08:20.279Z,12.40
2018-09-02T03:10:48.542Z,12.40
2018-09-02T03:13:16.791Z,12.30
2018-09-02T03:15:44.990Z,12.40
2018-09-02T03:18:13.227Z,12.30
2018-09-02T03:20:41.448Z,12.40
2018-09-02T03:23:09.679Z,12.30
2018-09-02T03:25:37.887Z,12.40
2018-09-02T03:28:06.148Z,12.40
2018-09-02T03:30:34.368Z,12.30
2018-09-02T03:33:02.602Z,12.30
2018-09-02T03:35:30.794Z,12.40
2018-09-02T03:37:59.021Z,12.40
2018-09-02T03:40:27.226Z,12.30
2018-09-02T03:42:55.447Z,12.30
2018-09-02T03:45:23.675Z,12.30
2018-09-02T03:47:51.897Z,12.30
2018-09-02T03:50:20.094Z,12.30
2018-09-02T03:52:48.309Z,12.30
2018-09-02T03:55:16.519Z,12.30
2018-09-02T03:57:44.726Z,12.30
2018-09-02T04:00:12.992Z,12.30
2018-09-02T04:02:41.228Z,12.20
2018-09-02T04:05:09.447Z,12.20
2018-09-02T04:07:37.697Z,12.20
2018-09-02T04:10:05.922Z,12.20
2018-09-02T04:12:34.134Z,12.20
2018-09-02T04:15:02.524Z,12.20
2018-09-02T04:17:30.791Z,12.30
2018-09-02T04:19:58.996Z,12.30
2018-09-02T04:22:27.215Z,12.30
2018-09-02T04:24:55.425Z,12.20
2018-09-02T04:27:23.634Z,12.30
2018-09-02T04:29:51.900Z,12.30
2018-09-02T04:32:20.107Z,12.30
2018-09-02T04:34:48.352Z,12.30
2018-09-02T04:37:16.584Z,12.30
2018-09-02T04:39:44.787Z,12.30
2018-09-02T04:42:13.032Z,12.30
2018-09-02T04:44:41.242Z,12.30
2018-09-02T04:47:09.480Z,12.30
2018-09-02T04:49:37.805Z,12.30
2018-09-02T04:52:06.037Z,12.30
2018-09-02T04:54:34.253Z,12.30
2018-09-02T04:57:02.460Z,12.30
2018-09-02T04:59:30.685Z,12.30
2018-09-02T05:01:58.882Z,12.40
2018-09-02T05:04:27.133Z,12.30
2018-09-02T05:06:55.342Z,12.30
2018-09-02T05:09:23.592Z,12.40
2018-09-02T05:11:51.829Z,12.40
2018-09-02T05:14:20.053Z,12.40
2018-09-02T05:16:48.264Z,12.40
2018-09-02T05:19:16.472Z,12.30
2018-09-02T05:21:44.760Z,12.40
2018-09-02T05:24:13.016Z,12.30
2018-09-02T05:26:41.220Z,12.30
2018-09-02T05:29:09.509Z,12.30
2018-09-02T05:31:37.723Z,12.30
2018-09-02T05:34:05.936Z,12.40
2018-09-02T05:36:34.147Z,12.40
2018-09-02T05:39:02.434Z,12.40
2018-09-02T05:41:30.647Z,12.50
2018-09-02T05:43:58.911Z,12.50
2018-09-02T05:46:27.152Z,12.50
2018-09-02T05:48:55.355Z,12.60
2018-09-02T05:51:23.685Z,12.50
2018-09-02T05:53:51.914Z,12.60
2018-09-02T05:56:20.138Z,12.70
2018-09-02T05:58:48.351Z,12.60
2018-09-02T06:01:16.558Z,12.70
2018-09-02T06:03:44.767Z,12.70
2018-09-02T06:06:12.974Z,12.80
2018-09-02T06:08:41.170Z,12.90
2018-09-02T06:11:09.382Z,13.00
2018-09-02T06:13:37.622Z,13.00
2018-09-02T06:16:05.836Z,13.00
2018-09-02T06:18:34.069Z,13.10
2018-09-02T06:21:02.279Z,13.20
2018-09-02T06:23:30.580Z,13.20
2018-09-02T06:25:58.799Z,13.20
2018-09-02T06:28:27.060Z,13.20
2018-09-02T06:30:55.287Z,13.20
2018-09-02T06:33:23.482Z,13.20
2018-09-02T06:35:51.703Z,13.10
2018-09-02T06:38:19.910Z,13.10
2018-09-02T06:40:48.158Z,13.10
2018-09-02T06:43:16.356Z,13.10
2018-09-02T06:45:44.582Z,13.10
2018-09-02T06:48:15.142Z,13.10
2018-09-02T06:50:43.355Z,13.20
2018-09-02T06:53:11.559Z,13.40
2018-09-02T06:55:39.874Z,13.50
2018-09-02T06:58:09.321Z,13.50
2018-09-02T07:00:37.576Z,13.40
2018-09-02T07:03:05.886Z,13.40
2018-09-02T07:05:38.501Z,13.30
2018-09-02T07:08:07.486Z,13.40
2018-09-02T07:10:35.732Z,13.60
2018-09-02T07:13:04.067Z,14.00
2018-09-02T07:15:32.387Z,14.30
2018-09-02T07:18:00.850Z,14.50
2018-09-02T07:20:29.114Z,14.40
2018-09-02T07:22:57.394Z,14.20
2018-09-02T07:25:25.624Z,14.20
2018-09-02T07:27:55.342Z,14.20
2018-09-02T07:30:23.845Z,14.00
2018-09-02T07:32:52.092Z,14.00
2018-09-02T07:35:20.315Z,14.10
2018-09-02T07:37:48.677Z,14.20
2018-09-02T07:40:21.617Z,14.30
2018-09-02T07:42:50.041Z,14.50
2018-09-02T07:45:19.002Z,14.40
2018-09-02T07:47:47.232Z,14.30
2018-09-02T07:50:16.635Z,14.20
2018-09-02T07:52:44.880Z,14.10
2018-09-02T07:55:13.172Z,14.10
2018-09-02T07:57:41.476Z,14.30
2018-09-02T08:00:10.666Z,14.50
2018-09-02T08:02:39.278Z,14.60
2018-09-02T08:05:07.450Z,14.70
2018-09-02T08:07:35.738Z,15.00
2018-09-02T08:10:04.144Z,15.00
2018-09-02T08:12:32.469Z,14.90
2018-09-02T08:15:00.633Z,14.70
2018-09-02T08:17:28.923Z,14.40
2018-09-02T08:19:57.187Z,14.30
2018-09-02T08:22:25.504Z,14.20
2018-09-02T08:24:53.735Z,14.20
2018-09-02T08:27:22.004Z,14.30
2018-09-02T08:29:51.326Z,14.40
2018-09-02T08:32:19.600Z,14.50
2018-09-02T08:34:47.808Z,14.60
2018-09-02T08:37:16.018Z,14.40
2018-09-02T08:39:44.264Z,14.40
2018-09-02T08:42:12.524Z,14.40
2018-09-02T08:44:40.723Z,14.50
2018-09-02T08:47:09.033Z,14.80
2018-09-02T08:49:37.284Z,14.80
2018-09-02T08:52:06.012Z,14.90
2018-09-02T08:54:34.470Z,15.00
2018-09-02T08:57:02.818Z,15.10
2018-09-02T08:59:31.063Z,15.20
2018-09-02T09:01:59.459Z,15.20
2018-09-02T09:04:29.567Z,15.30
2018-09-02T09:06:57.767Z,15.20
2018-09-02T09:09:25.982Z,15.30
2018-09-02T09:11:54.574Z,15.30
2018-09-02T09:14:22.984Z,15.40
2018-09-02T09:16:51.441Z,15.50
2018-09-02T09:19:19.584Z,15.30
2018-09-02T09:21:47.799Z,15.30
2018-09-02T09:24:16.081Z,15.90
2018-09-02T09:26:44.358Z,15.80
2018-09-02T09:29:12.616Z,15.70
2018-09-02T09:31:40.815Z,15.80
2018-09-02T09:34:09.038Z,16.00
2018-09-02T09:36:37.259Z,15.80
2018-09-02T09:39:07.751Z,16.10
2018-09-02T09:41:36.108Z,16.00
2018-09-02T09:44:04.352Z,15.80
2018-09-02T09:46:32.555Z,16.00
2018-09-02T09:49:00.776Z,15.90
2018-09-02T09:51:29.149Z,15.90
2018-09-02T09:53:57.455Z,16.10
2018-09-02T09:56:25.755Z,16.30
2018-09-02T09:58:53.989Z,16.40
2018-09-02T10:01:22.328Z,15.70
2018-09-02T10:03:50.535Z,15.50
2018-09-02T10:06:18.762Z,15.90
2018-09-02T10:08:47.179Z,16.40
2018-09-02T10:11:15.709Z,16.40
2018-09-02T10:13:43.938Z,16.10
2018-09-02T10:16:12.145Z,16.30
2018-09-02T10:18:40.355Z,16.20
2018-09-02T10:21:08.896Z,16.00
2018-09-02T10:23:37.151Z,16.30
2018-09-02T10:26:07.010Z,16.20
2018-09-02T10:28:35.210Z,16.10
2018-09-02T10:31:04.354Z,15.70
2018-09-02T10:33:32.636Z,15.70
2018-09-02T10:36:00.836Z,15.50
2018-09-02T10:38:29.722Z,15.50
2018-09-02T10:40:58.005Z,15.70
2018-09-02T10:43:27.101Z,15.90
2018-09-02T10:45:55.381Z,15.60
2018-09-02T10:48:23.586Z,15.10
2018-09-02T10:50:51.797Z,14.80
2018-09-02T10:53:20.018Z,14.60
2018-09-02T10:55:48.242Z,14.60
2018-09-02T10:58:16.499Z,14.60
2018-09-02T11:00:44.719Z,14.60
2018-09-02T11:03:12.955Z,14.70
2018-09-02T11:05:41.231Z,14.90
2018-09-02T11:08:09.488Z,14.80
2018-09-02T11:10:37.752Z,15.10
2018-09-02T11:13:06.488Z,15.20
2018-09-02T11:15:34.651Z,15.20
2018-09-02T11:18:02.896Z,15.20
2018-09-02T11:20:31.148Z,15.50
2018-09-02T11:22:59.360Z,15.30
2018-09-02T11:25:27.660Z,15.30
2018-09-02T11:27:55.992Z,15.60
2018-09-02T11:30:24.260Z,16.00
2018-09-02T11:32:52.466Z,16.40
2018-09-02T11:35:20.929Z,16.70
2018-09-02T11:37:49.445Z,16.90
2018-09-02T11:40:17.683Z,16.70
2018-09-02T11:42:45.946Z,16.80
2018-09-02T11:45:14.447Z,16.80
2018-09-02T11:47:42.751Z,16.60
2018-09-02T11:50:10.979Z,16.50
2018-09-02T11:52:39.419Z,16.30
2018-09-02T11:55:07.639Z,16.00
2018-09-02T11:57:35.975Z,15.90
2018-09-02T12:00:04.701Z,16.10
2018-09-02T12:02:33.601Z,15.90
2018-09-02T12:05:04.446Z,15.70
2018-09-02T12:07:34.543Z,15.90
2018-09-02T12:10:03.976Z,15.90
2018-09-02T12:12:32.790Z,15.60
2018-09-02T12:15:04.237Z,15.80
2018-09-02T12:17:32.666Z,16.30
2018-09-02T12:20:03.244Z,16.90
2018-09-02T12:22:31.779Z,16.50
2018-09-02T12:25:00.811Z,16.20
2018-09-02T12:27:29.729Z,16.10
2018-09-02T12:29:59.118Z,16.50
2018-09-02T12:32:27.691Z,16.60
2018-09-02T12:34:55.995Z,16.60
2018-09-02T12:37:24.839Z,16.30
2018-09-02T12:39:53.099Z,16.30
2018-09-02T12:42:21.508Z,16.90
2018-09-02T12:44:49.830Z,17.30
2018-09-02T12:47:18.085Z,17.50
2018-09-02T12:49:46.342Z,17.60
2018-09-02T12:52:14.712Z,17.70
2018-09-02T12:54:43.048Z,18.00
2018-09-02T12:57:12.313Z,18.10
2018-09-02T12:59:42.149Z,18.00
2018-09-02T13:02:10.672Z,18.20
2018-09-02T13:04:38.897Z,18.70
2018-09-02T13:07:11.640Z,18.50
2018-09-02T13:09:39.962Z,18.80
2018-09-02T13:12:08.301Z,18.60
2018-09-02T13:14:36.544Z,18.60
2018-09-02T13:17:04.871Z,19.50
2018-09-02T13:19:33.078Z,19.40
2018-09-02T13:22:06.352Z,19.50
2018-09-02T13:24:36.318Z,19.90
2018-09-02T13:27:04.603Z,20.20
2018-09-02T13:29:35.519Z,20.10
2018-09-02T13:32:03.879Z,19.70
2018-09-02T13:34:32.157Z,19.40
2018-09-02T13:37:00.562Z,19.20
2018-09-02T13:39:28.842Z,17.90
2018-09-02T13:41:58.093Z,17.40
2018-09-02T13:44:26.339Z,17.30
2018-09-02T13:46:55.096Z,17.10
2018-09-02T13:49:23.520Z,16.90
2018-09-02T13:51:51.906Z,17.00
2018-09-02T13:54:20.235Z,17.00
2018-09-02T13:56:48.548Z,17.30
2018-09-02T13:59:20.506Z,17.60
2018-09-02T14:01:49.059Z,17.50
2018-09-02T14:04:17.299Z,17.30
2018-09-02T14:06:45.626Z,17.20
2018-09-02T14:09:14.104Z,17.80
2018-09-02T14:11:42.356Z,19.30
2018-09-02T14:14:10.586Z,19.60
2018-09-02T14:16:39.187Z,20.80
2018-09-02T14:19:07.450Z,19.40
2018-09-02T14:21:41.091Z,19.30
2018-09-02T14:24:09.403Z,19.00
2018-09-02T14:26:38.281Z,18.30
2018-09-02T14:29:06.705Z,18.90
2018-09-02T14:31:36.560Z,19.20
2018-09-02T14:34:04.905Z,18.90
2018-09-02T14:36:33.861Z,18.90
2018-09-02T14:39:02.194Z,18.60
2018-09-02T14:41:31.294Z,18.00
2018-09-02T14:44:02.448Z,17.50
2018-09-02T14:46:35.320Z,17.90
2018-09-02T14:49:03.716Z,17.60
2018-09-02T14:51:32.104Z,17.50
2018-09-02T14:54:00.414Z,17.80
2018-09-02T14:56:29.211Z,17.20
2018-09-02T14:58:58.230Z,17.50
2018-09-02T15:01:26.463Z,17.60
2018-09-02T15:03:54.699Z,17.80
2018-09-02T15:06:23.320Z,17.70
2018-09-02T15:08:51.581Z,17.30
2018-09-02T15:11:19.894Z,16.90
2018-09-02T15:13:48.217Z,17.20
2018-09-02T15:16:17.522Z,17.60
2018-09-02T15:18:46.056Z,18.10
2018-09-02T15:21:14.445Z,18.30
2018-09-02T15:23:42.814Z,18.40
2018-09-02T15:26:11.252Z,17.80
2018-09-02T15:28:39.987Z,17.70
2018-09-02T15:31:08.291Z,17.40
2018-09-02T15:33:39.368Z,17.10
2018-09-02T15:36:07.907Z,17.20
2018-09-02T15:38:36.150Z,16.70
2018-09-02T15:41:05.554Z,16.60
2018-09-02T15:43:40.622Z,16.60
2018-09-02T15:46:12.734Z,16.70
2018-09-02T15:48:41.803Z,16.70
2018-09-02T15:51:10.540Z,16.50
2018-09-02T15:53:40.163Z,16.40
2018-09-02T15:56:08.877Z,16.30
2018-09-02T15:58:40.541Z,16.20
2018-09-02T16:01:08.864Z,16.20
2018-09-02T16:03:40.622Z,16.10
2018-09-02T16:06:09.078Z,16.10
2018-09-02T16:08:37.313Z,16.10
2018-09-02T16:11:05.683Z,16.10
2018-09-02T16:13:33.938Z,16.10
2018-09-02T16:16:02.524Z,16.20
2018-09-02T16:18:31.243Z,16.10
2018-09-02T16:20:59.540Z,16.10
2018-09-02T16:23:27.828Z,16.10
2018-09-02T16:25:56.154Z,16.00
2018-09-02T16:28:25.685Z,16.10
2018-09-02T16:30:53.938Z,16.10
2018-09-02T16:33:27.903Z,16.10
2018-09-02T16:35:56.223Z,16.20
2018-09-02T16:38:24.554Z,16.30
2018-09-02T16:40:52.767Z,16.30
2018-09-02T16:43:21.054Z,16.40
2018-09-02T16:45:49.400Z,16.20
2018-09-02T16:48:36.257Z,16.20
2018-09-02T16:51:04.833Z,16.10
2018-09-02T16:53:33.044Z,16.10
2018-09-02T16:56:01.510Z,16.00
2018-09-02T16:58:29.765Z,16.00
2018-09-02T17:00:58.930Z,16.00
2018-09-02T17:03:31.714Z,16.00
2018-09-02T17:06:00.012Z,15.90
2018-09-02T17:08:28.182Z,15.90
2018-09-02T17:10:56.484Z,15.90
2018-09-02T17:13:31.416Z,15.90
2018-09-02T17:15:59.912Z,15.80
2018-09-02T17:18:28.228Z,15.80
2018-09-02T17:20:56.701Z,15.90
2018-09-02T17:23:24.931Z,15.80
2018-09-02T17:25:53.287Z,15.80
2018-09-02T17:28:21.436Z,15.80
2018-09-02T17:30:49.932Z,15.80
2018-09-02T17:33:18.176Z,15.80
2018-09-02T17:35:46.452Z,15.80
2018-09-02T17:38:14.709Z,15.80
2018-09-02T17:40:42.894Z,15.70
2018-09-02T17:43:11.425Z,15.70
2018-09-02T17:45:39.693Z,15.70
2018-09-02T17:48:07.971Z,15.70
2018-09-02T17:50:36.208Z,15.70
2018-09-02T17:53:04.439Z,15.60
2018-09-02T17:55:32.778Z,15.60
2018-09-02T17:58:01.066Z,15.60
2018-09-02T18:00:35.691Z,15.60
2018-09-02T18:03:03.933Z,15.60
2018-09-02T18:05:32.364Z,15.60
2018-09-02T18:08:00.624Z,15.60
2018-09-02T18:10:29.122Z,15.60
2018-09-02T18:12:57.413Z,15.60
2018-09-02T18:15:25.913Z,15.50
2018-09-02T18:17:54.521Z,15.50
2018-09-02T18:20:22.771Z,15.50
2018-09-02T18:23:09.226Z,15.50
2018-09-02T18:25:37.453Z,15.50
2018-09-02T18:28:08.128Z,15.50
2018-09-02T18:30:36.395Z,15.50
2018-09-02T18:33:04.766Z,15.50
2018-09-02T18:35:33.058Z,15.50
2018-09-02T18:38:01.308Z,15.50
2018-09-02T18:40:29.586Z,15.40
2018-09-02T18:42:57.876Z,15.40
2018-09-02T18:45:26.269Z,15.40
2018-09-02T18:47:54.468Z,15.40
2018-09-02T18:50:22.694Z,15.40
2018-09-02T18:52:50.932Z,15.40
2018-09-02T18:55:19.208Z,15.40
2018-09-02T18:57:47.450Z,15.40
2018-09-02T19:00:15.762Z,15.40
2018-09-02T19:02:44.033Z,15.40
2018-09-02T19:05:12.358Z,15.40
2018-09-02T19:07:40.739Z,15.40
2018-09-02T19:10:08.997Z,15.40
2018-09-02T19:12:37.302Z,15.40
2018-09-02T19:15:05.918Z,15.40
2018-09-02T19:17:34.150Z,15.40
2018-09-02T19:20:02.411Z,15.40
2018-09-02T19:22:30.824Z,15.40
2018-09-02T19:24:59.232Z,15.30
2018-09-02T19:27:27.675Z,15.30
2018-09-02T19:29:56.195Z,15.30
2018-09-02T19:32:24.574Z,15.30
2018-09-02T19:34:52.824Z,15.30
2018-09-02T19:37:21.316Z,15.30
2018-09-02T19:39:49.713Z,15.30
2018-09-02T19:42:18.105Z,15.30
2018-09-02T19:44:46.335Z,15.30
2018-09-02T19:47:14.598Z,15.30
2018-09-02T19:49:42.860Z,15.30
2018-09-02T19:52:11.248Z,15.30
2018-09-02T19:54:39.682Z,15.30
2018-09-02T19:57:08.080Z,15.30
2018-09-02T19:59:36.354Z,15.30
2018-09-02T20:02:04.728Z,15.30
2018-09-02T20:04:33.032Z,15.30
2018-09-02T20:07:01.238Z,15.30
2018-09-02T20:09:32.776Z,15.20
2018-09-02T20:12:01.484Z,15.20
2018-09-02T20:14:29.884Z,15.20
2018-09-02T20:16:58.265Z,15.20
2018-09-02T20:19:26.653Z,15.20
2018-09-02T20:21:54.871Z,15.20
2018-09-02T20:24:23.123Z,15.20
2018-09-02T20:26:51.696Z,15.20
2018-09-02T20:29:19.956Z,15.20
2018-09-02T20:31:48.164Z,15.20
2018-09-02T20:34:16.386Z,15.20
2018-09-02T20:36:44.615Z,15.20
2018-09-02T20:39:12.872Z,15.20
2018-09-02T20:41:41.116Z,15.20
2018-09-02T20:44:09.304Z,15.20
2018-09-02T20:46:37.746Z,15.20
2018-09-02T20:49:06.208Z,15.20
2018-09-02T20:51:34.508Z,15.20
2018-09-02T20:54:02.731Z,15.20
2018-09-02T20:56:30.999Z,15.20
2018-09-02T20:58:59.633Z,15.20
2018-09-02T21:01:27.867Z,15.20
2018-09-02T21:03:56.070Z,15.20
2018-09-02T21:06:24.279Z,15.20
2018-09-02T21:08:52.534Z,15.20
2018-09-02T21:11:20.776Z,15.20
2018-09-02T21:13:49.029Z,15.20
2018-09-02T21:16:17.296Z,15.20
2018-09-02T21:18:45.560Z,15.20
2018-09-02T21:21:13.820Z,15.10
2018-09-02T21:23:42.080Z,15.10
2018-09-02T21:26:10.372Z,15.10
2018-09-02T21:28:38.605Z,15.10
2018-09-02T21:31:06.848Z,15.10
2018-09-02T21:33:35.074Z,15.10
2018-09-02T21:36:03.291Z,15.10
2018-09-02T21:38:31.540Z,15.10
2018-09-02T21:40:59.737Z,15.10
2018-09-02T21:43:27.966Z,15.10
2018-09-02T21:45:56.207Z,15.10
2018-09-02T21:48:24.448Z,15.10
2018-09-02T21:50:52.778Z,15.10
2018-09-02T21:53:21.089Z,15.10
2018-09-02T21:55:49.294Z,15.10
2018-09-02T21:58:17.716Z,15.10
2018-09-02T22:00:45.964Z,15.10
2018-09-02T22:03:14.184Z,15.10
2018-09-02T22:05:42.484Z,15.10
2018-09-02T22:08:10.716Z,15.10
2018-09-02T22:10:39.114Z,15.10
2018-09-02T22:13:07.387Z,15.10
2018-09-02T22:15:35.840Z,15.10
2018-09-02T22:18:04.379Z,15.00
2018-09-02T22:20:32.598Z,15.10
2018-09-02T22:23:00.814Z,15.10
2018-09-02T22:25:29.140Z,15.10
2018-09-02T22:27:57.357Z,15.10
2018-09-02T22:30:25.618Z,15.10
2018-09-02T22:32:58.285Z,15.10
2018-09-02T22:35:26.522Z,15.10
2018-09-02T22:37:55.499Z,15.00
2018-09-02T22:40:23.750Z,15.00
2018-09-02T22:42:51.993Z,14.90
2018-09-02T22:45:20.236Z,15.00
2018-09-02T22:47:48.562Z,14.90
2018-09-02T22:50:16.791Z,14.90
2018-09-02T22:52:44.994Z,14.90
2018-09-02T22:55:13.651Z,14.80
2018-09-02T22:57:41.925Z,14.80
2018-09-02T23:00:10.104Z,14.80
2018-09-02T23:02:38.446Z,14.80
2018-09-02T23:05:08.199Z,14.80
2018-09-02T23:07:36.440Z,14.80
2018-09-02T23:10:07.112Z,14.80
2018-09-02T23:12:35.390Z,14.80
2018-09-02T23:15:04.376Z,14.80
2018-09-02T23:17:33.556Z,14.90
2018-09-02T23:20:01.814Z,14.90
2018-09-02T23:22:30.942Z,14.90
2018-09-02T23:24:59.523Z,14.90
2018-09-02T23:27:27.832Z,14.90
2018-09-02T23:29:56.043Z,14.90
2018-09-02T23:32:24.408Z,14.90
2018-09-02T23:34:52.672Z,14.90
2018-09-02T23:37:20.917Z,15.00
2018-09-02T23:39:49.147Z,14.90
2018-09-02T23:42:17.391Z,14.90
2018-09-02T23:44:45.604Z,14.80
2018-09-02T23:47:13.914Z,14.80
2018-09-02T23:49:42.119Z,14.90
2018-09-02T23:52:10.394Z,14.80
2018-09-02T23:54:38.632Z,14.80
2018-09-02T23:57:06.936Z,14.80
2018-09-02T23:59:35.135Z,14.80
